메인 페이지
METAR-TAF:

METAR-TAF

공항 :

칼리닌그라드, 러시아

위도: 54-43-12N, 경도: 020-30E, 고도: 21m

현재 날씨관측

예보는 26분 전, 12:00시(UTC)에 발표되었습니다.
북북동8kt북서풍과 동북동풍을 오가는
온도 23°C
습도 61%
기압 1012 hPa
시정 10km 이상
고도 3000ft 상공 구름 조금

METAR: UMKK 241200Z 02004MPS 320V070 9999 FEW030 23/15 Q1012 R06/95D NOSIG RMK QFE758/1011

시각: 14:26 (12:26 UTC)

예보

예보는 1 시간 27분 전, 10:59시(UTC)에 발표되었습니다.
예보 대상 시간: 24일 12시부터 25일 12시까지 (UTC)
6kt, 순간 최대 풍속 19kt
시정: 6000m
고도 2000ft 상공 구름 보통, 적란운.
일시적
24일 13시부터 24일 21시까지 (UTC)
뇌우, 약한비
전환 중
24일 18시부터 24일 21시까지 (UTC)
6kt, 순간 최대 풍속 16kt
일시적
24일 21시부터 25일 04시까지 (UTC)
시정: 0300m
고도 200ft 상공 구름 조금
고도 2000ft 상공 구름 보통, 적란운.
일부 안개
일시적
25일 04시부터 25일 12시까지 (UTC)
고도 1000ft 상공 구름 많음
고도 2000ft 상공 구름 많음, 적란운.
뇌우, 약한비
전환 중
25일 06시부터 25일 09시까지 (UTC)
북서10kt, 순간 최대 풍속 19kt

TAF: UMKK 241059Z 2412/2512 36003G10MPS 6000 SCT020CB TEMPO 2413/2421 -TSRA BECMG 2418/2421 28003G08MPS TEMPO 2421/2504 0300 PRFG FEW002 SCT020CB TEMPO 2504/2512 -TSRA BKN010 BKN020CB BECMG 2506/2509 31005G10MPS

4,000개 이상의 공항 관측 자료 및 예보 (METAR 및 TAF 보고).

지도상에서 검색 가능한 기상관측소가 노란 점과 빨간 점으로 표시되어 있습니다.

기상관측소 명을 보려면 표시 위로 마우스를 이동하세요.

날씨 관측과 예보를 보려면 클릭하세요.

지도 변경 : 확대하려면 엑스 표시가 있는 녹색 버튼, 축소하려면 빼기 표시가 있는 녹색 버튼, 다음 페이지의 지도를 보려면 녹색 화살표를 클릭하세요.


METAR-TAF: